createdAt,value
2017-09-19T00:00:22.417Z,10.30
2017-09-19T00:02:54.750Z,10.30
2017-09-19T00:05:27.094Z,10.40
2017-09-19T00:07:59.316Z,10.50
2017-09-19T00:10:31.660Z,10.40
2017-09-19T00:13:03.818Z,10.40
2017-09-19T00:15:36.239Z,10.40
2017-09-19T00:18:08.572Z,10.30
2017-09-19T00:20:40.876Z,10.40
2017-09-19T00:23:13.005Z,10.50
2017-09-19T00:25:45.948Z,10.40
2017-09-19T00:28:18.217Z,10.40
2017-09-19T00:30:50.665Z,10.30
2017-09-19T00:33:23.102Z,10.20
2017-09-19T00:35:55.698Z,10.20
2017-09-19T00:38:28.108Z,10.10
2017-09-19T00:41:00.448Z,10.00
2017-09-19T00:43:32.774Z,10.00
2017-09-19T00:46:05.040Z,10.00
2017-09-19T00:48:37.158Z,10.00
2017-09-19T00:51:09.513Z,10.10
2017-09-19T00:53:41.748Z,10.00
2017-09-19T00:56:14.813Z,10.00
2017-09-19T00:58:47.159Z,10.00
2017-09-19T01:01:19.426Z,10.00
2017-09-19T01:03:51.937Z,10.10
2017-09-19T01:06:24.161Z,10.30
2017-09-19T01:08:56.393Z,10.20
2017-09-19T01:11:28.562Z,10.30
2017-09-19T01:14:00.817Z,10.30
2017-09-19T01:16:33.024Z,10.30
2017-09-19T01:19:05.389Z,10.00
2017-09-19T01:21:38.305Z,9.80
2017-09-19T01:24:10.719Z,9.70
2017-09-19T01:26:43.777Z,9.60
2017-09-19T01:29:16.029Z,9.50
2017-09-19T01:31:48.383Z,9.40
2017-09-19T01:34:21.429Z,9.50
2017-09-19T01:36:53.616Z,9.40
2017-09-19T01:39:25.889Z,9.50
2017-09-19T01:41:58.794Z,9.50
2017-09-19T01:44:31.024Z,9.50
2017-09-19T01:47:04.105Z,9.70
2017-09-19T01:49:37.271Z,9.50
2017-09-19T01:52:09.490Z,9.50
2017-09-19T01:54:41.754Z,9.50
2017-09-19T01:57:13.989Z,9.30
2017-09-19T01:59:46.217Z,9.20
2017-09-19T02:02:18.429Z,9.10
2017-09-19T02:04:50.585Z,9.20
2017-09-19T02:07:22.915Z,9.10
2017-09-19T02:09:55.164Z,9.10
2017-09-19T02:12:27.381Z,9.10
2017-09-19T02:14:59.690Z,9.00
2017-09-19T02:19:54.706Z,9.00
2017-09-19T02:22:27.021Z,9.00
2017-09-19T02:24:59.255Z,9.00
2017-09-19T02:27:31.641Z,9.10
2017-09-19T02:30:03.895Z,9.10
2017-09-19T02:32:35.989Z,9.00
2017-09-19T02:35:08.349Z,9.10
2017-09-19T02:37:41.216Z,9.30
2017-09-19T02:40:14.377Z,9.30
2017-09-19T02:42:46.533Z,9.30
2017-09-19T02:45:18.711Z,9.50
2017-09-19T02:47:51.068Z,9.40
2017-09-19T02:50:23.498Z,9.50
2017-09-19T02:52:55.685Z,9.60
2017-09-19T02:55:28.205Z,9.50
2017-09-19T02:58:01.425Z,9.60
2017-09-19T03:00:33.649Z,9.50
2017-09-19T03:03:06.017Z,9.50
2017-09-19T03:05:38.329Z,9.40
2017-09-19T03:08:10.528Z,9.40
2017-09-19T03:10:42.781Z,9.60
2017-09-19T03:13:15.176Z,9.60
2017-09-19T03:15:47.682Z,9.40
2017-09-19T03:18:20.105Z,9.50
2017-09-19T03:20:52.347Z,9.40
2017-09-19T03:23:24.582Z,9.30
2017-09-19T03:25:57.501Z,9.30
2017-09-19T03:28:29.946Z,9.30
2017-09-19T03:31:02.095Z,9.30
2017-09-19T03:33:34.220Z,9.30
2017-09-19T03:36:06.422Z,9.30
2017-09-19T03:38:38.686Z,9.20
2017-09-19T03:41:11.142Z,9.30
2017-09-19T03:43:43.481Z,9.20
2017-09-19T03:46:15.640Z,9.10
2017-09-19T03:48:47.966Z,9.00
2017-09-19T03:51:20.109Z,8.90
2017-09-19T03:53:52.370Z,8.80
2017-09-19T03:56:24.634Z,8.70
2017-09-19T03:58:56.924Z,8.60
2017-09-19T04:01:29.387Z,8.60
2017-09-19T04:04:01.772Z,8.50
2017-09-19T04:06:33.975Z,8.40
2017-09-19T04:09:06.329Z,8.30
2017-09-19T04:11:38.633Z,8.30
2017-09-19T04:14:11.023Z,8.30
2017-09-19T04:16:43.305Z,8.40
2017-09-19T04:19:15.679Z,8.40
2017-09-19T04:21:47.906Z,8.40
2017-09-19T04:24:20.112Z,8.30
2017-09-19T04:26:52.326Z,8.30
2017-09-19T04:29:24.744Z,8.30
2017-09-19T04:31:56.910Z,8.30
2017-09-19T04:34:29.242Z,8.40
2017-09-19T04:37:02.245Z,8.40
2017-09-19T04:39:34.497Z,8.30
2017-09-19T04:42:06.837Z,8.40
2017-09-19T04:44:39.226Z,8.40
2017-09-19T04:47:11.588Z,8.50
2017-09-19T04:49:43.866Z,8.40
2017-09-19T04:52:16.263Z,8.40
2017-09-19T04:54:48.618Z,8.40
2017-09-19T04:57:20.842Z,8.50
2017-09-19T04:59:53.207Z,8.60
2017-09-19T05:02:25.577Z,8.70
2017-09-19T05:04:57.980Z,8.60
2017-09-19T05:07:30.154Z,8.60
2017-09-19T05:10:02.442Z,8.40
2017-09-19T05:12:34.691Z,8.40
2017-09-19T05:15:06.822Z,8.40
2017-09-19T05:17:39.874Z,8.70
2017-09-19T05:20:12.252Z,8.70
2017-09-19T05:22:44.604Z,8.70
2017-09-19T05:25:17.078Z,8.70
2017-09-19T05:27:49.279Z,8.60
2017-09-19T05:30:22.299Z,8.60
2017-09-19T05:32:54.551Z,8.50
2017-09-19T05:35:27.034Z,8.50
2017-09-19T05:37:59.436Z,8.60
2017-09-19T05:40:31.639Z,8.60
2017-09-19T05:43:04.573Z,8.80
2017-09-19T05:45:37.456Z,9.00
2017-09-19T05:48:09.865Z,8.90
2017-09-19T05:50:42.220Z,8.90
2017-09-19T05:53:15.429Z,9.00
2017-09-19T05:55:47.782Z,9.00
2017-09-19T05:58:20.128Z,9.20
2017-09-19T06:00:53.242Z,9.70
2017-09-19T06:03:25.588Z,9.70
2017-09-19T06:05:57.910Z,10.10
2017-09-19T06:08:30.301Z,10.60
2017-09-19T06:11:02.515Z,10.90
2017-09-19T06:13:35.450Z,11.90
2017-09-19T06:16:07.776Z,11.80
2017-09-19T06:18:40.005Z,12.20
2017-09-19T06:21:12.344Z,11.90
2017-09-19T06:23:44.672Z,12.10
2017-09-19T06:26:16.997Z,12.20
2017-09-19T06:28:49.341Z,11.80
2017-09-19T06:31:21.641Z,11.00
2017-09-19T06:33:54.608Z,10.40
2017-09-19T06:36:26.898Z,10.30
2017-09-19T06:38:59.188Z,10.30
2017-09-19T06:41:31.538Z,10.40
2017-09-19T06:44:04.467Z,10.40
2017-09-19T06:46:37.454Z,10.70
2017-09-19T06:49:09.818Z,10.70
2017-09-19T06:51:42.204Z,11.00
2017-09-19T06:54:14.485Z,12.00
2017-09-19T06:56:46.738Z,13.30
2017-09-19T06:59:19.186Z,14.50
2017-09-19T07:01:51.384Z,14.70
2017-09-19T07:04:23.804Z,16.00
2017-09-19T07:06:56.065Z,16.50
2017-09-19T07:09:29.033Z,16.90
2017-09-19T07:12:01.210Z,16.90
2017-09-19T07:14:33.658Z,17.00
2017-09-19T07:17:06.778Z,18.10
2017-09-19T07:19:39.141Z,18.10
2017-09-19T07:22:12.181Z,18.40
2017-09-19T07:24:45.240Z,18.50
2017-09-19T07:27:17.468Z,18.50
2017-09-19T07:29:49.878Z,19.30
2017-09-19T07:32:22.464Z,19.30
2017-09-19T07:34:54.866Z,18.60
2017-09-19T07:37:27.261Z,19.50
2017-09-19T07:39:59.582Z,19.80
2017-09-19T07:42:31.865Z,19.60
2017-09-19T07:45:03.982Z,19.60
2017-09-19T07:47:36.301Z,19.90
2017-09-19T07:50:08.713Z,21.50
2017-09-19T07:52:40.974Z,20.60
2017-09-19T07:55:13.306Z,22.20
2017-09-19T07:57:45.640Z,21.50
2017-09-19T08:00:18.061Z,21.40
2017-09-19T08:02:50.313Z,21.80
2017-09-19T08:05:22.709Z,21.40
2017-09-19T08:07:54.881Z,20.90
2017-09-19T08:10:27.269Z,21.80
2017-09-19T08:12:59.610Z,22.70
2017-09-19T08:15:31.905Z,22.70
2017-09-19T08:18:04.317Z,23.60
2017-09-19T08:20:36.485Z,23.30
2017-09-19T08:23:08.931Z,23.50
2017-09-19T08:25:41.234Z,24.00
2017-09-19T08:28:13.512Z,24.80
2017-09-19T08:30:45.897Z,24.20
2017-09-19T08:33:18.089Z,24.70
2017-09-19T08:35:50.485Z,25.90
2017-09-19T08:38:22.601Z,25.40
2017-09-19T08:40:54.813Z,24.40
2017-09-19T08:43:27.109Z,23.60
2017-09-19T08:45:59.545Z,24.90
2017-09-19T08:48:32.199Z,22.70
2017-09-19T08:51:04.592Z,24.30
2017-09-19T08:53:37.737Z,26.20
2017-09-19T08:56:10.012Z,26.30
2017-09-19T08:58:42.290Z,26.20
2017-09-19T09:01:14.546Z,27.10
2017-09-19T09:03:46.870Z,27.60
2017-09-19T09:06:20.000Z,23.90
2017-09-19T09:08:52.874Z,23.30
2017-09-19T09:11:25.019Z,23.30
2017-09-19T09:13:57.320Z,22.20
2017-09-19T09:16:29.639Z,22.50
2017-09-19T09:19:01.717Z,23.80
2017-09-19T09:21:33.954Z,24.00
2017-09-19T09:24:06.352Z,24.30
2017-09-19T09:26:38.678Z,25.30
2017-09-19T09:29:10.936Z,25.60
2017-09-19T09:31:44.054Z,24.80
2017-09-19T09:34:16.425Z,24.80
2017-09-19T09:36:48.625Z,25.70
2017-09-19T09:39:20.814Z,25.40
2017-09-19T09:41:53.197Z,25.30
2017-09-19T09:44:25.604Z,25.40
2017-09-19T09:46:58.010Z,25.60
2017-09-19T09:49:30.373Z,25.40
2017-09-19T09:52:03.289Z,25.00
2017-09-19T09:54:35.533Z,24.80
2017-09-19T09:57:07.834Z,23.00
2017-09-19T09:59:40.338Z,23.10
2017-09-19T10:02:12.637Z,24.30
2017-09-19T10:04:44.945Z,22.40
2017-09-19T10:07:17.329Z,22.20
2017-09-19T10:09:49.649Z,22.40
2017-09-19T10:12:22.758Z,21.60
2017-09-19T10:14:55.801Z,22.90
2017-09-19T10:17:28.178Z,22.90
2017-09-19T10:20:00.473Z,24.00
2017-09-19T10:22:32.937Z,23.60
2017-09-19T10:25:05.342Z,20.60
2017-09-19T10:27:38.373Z,22.00
2017-09-19T10:30:11.554Z,23.10
2017-09-19T10:32:43.738Z,23.10
2017-09-19T10:35:16.075Z,24.40
2017-09-19T10:37:48.452Z,24.20
2017-09-19T10:40:20.760Z,22.20
2017-09-19T10:42:53.173Z,23.30
2017-09-19T10:45:25.614Z,24.40
2017-09-19T10:47:58.146Z,25.50
2017-09-19T10:50:30.394Z,26.60
2017-09-19T10:53:02.793Z,24.10
2017-09-19T10:55:35.900Z,25.50
2017-09-19T10:58:09.048Z,25.20
2017-09-19T11:00:41.469Z,25.20
2017-09-19T11:03:13.714Z,25.30
2017-09-19T11:05:45.913Z,24.60
2017-09-19T11:08:18.339Z,25.00
2017-09-19T11:10:50.666Z,27.20
2017-09-19T11:13:23.063Z,27.40
2017-09-19T11:15:55.189Z,25.20
2017-09-19T11:18:27.653Z,25.00
2017-09-19T11:21:00.042Z,25.90
2017-09-19T11:23:32.312Z,27.10
2017-09-19T11:26:04.701Z,26.50
2017-09-19T11:28:37.097Z,25.80
2017-09-19T11:31:09.484Z,24.80
2017-09-19T11:33:41.859Z,25.70
2017-09-19T11:36:13.974Z,24.40
2017-09-19T11:38:46.436Z,26.10
2017-09-19T11:41:18.753Z,24.70
2017-09-19T11:43:51.084Z,23.60
2017-09-19T11:46:24.300Z,21.70
2017-09-19T11:48:56.438Z,21.70
2017-09-19T11:51:28.809Z,22.20
2017-09-19T11:54:02.084Z,25.20
2017-09-19T11:56:34.210Z,25.20
2017-09-19T11:59:07.160Z,24.00
2017-09-19T12:01:39.305Z,24.00
2017-09-19T12:04:11.849Z,22.70
2017-09-19T12:06:44.315Z,23.60
2017-09-19T12:09:16.709Z,24.80
2017-09-19T12:11:49.096Z,25.90
2017-09-19T12:14:21.312Z,26.30
2017-09-19T12:16:53.746Z,24.30
2017-09-19T12:19:26.060Z,22.50
2017-09-19T12:21:58.437Z,21.40
2017-09-19T12:24:31.053Z,21.70
2017-09-19T12:27:03.273Z,21.30
2017-09-19T12:29:35.777Z,21.30
2017-09-19T12:32:08.810Z,20.10
2017-09-19T12:34:41.162Z,20.10
2017-09-19T12:37:13.573Z,19.50
2017-09-19T12:39:45.885Z,20.50
2017-09-19T12:42:18.057Z,22.10
2017-09-19T12:44:50.344Z,22.70
2017-09-19T12:47:22.774Z,22.10
2017-09-19T12:49:55.722Z,22.00
2017-09-19T12:52:27.966Z,22.00
2017-09-19T12:55:00.111Z,23.40
2017-09-19T12:57:34.123Z,23.10
2017-09-19T13:00:06.398Z,23.80
2017-09-19T13:02:38.771Z,23.50
2017-09-19T13:05:11.322Z,23.60
2017-09-19T13:07:43.610Z,24.60
2017-09-19T13:10:15.907Z,22.80
2017-09-19T13:12:48.229Z,23.30
2017-09-19T13:15:20.528Z,23.20
2017-09-19T13:17:52.993Z,24.20
2017-09-19T13:20:25.240Z,22.90
2017-09-19T13:22:58.311Z,21.60
2017-09-19T13:25:31.321Z,21.30
2017-09-19T13:28:03.766Z,21.30
2017-09-19T13:30:36.171Z,21.50
2017-09-19T13:33:20.867Z,21.40
2017-09-19T13:35:53.233Z,20.80
2017-09-19T13:38:25.582Z,21.10
2017-09-19T13:40:58.040Z,20.60
2017-09-19T13:43:30.455Z,20.30
2017-09-19T13:46:02.757Z,20.20
2017-09-19T13:48:34.927Z,20.00
2017-09-19T13:51:07.337Z,19.80
2017-09-19T13:53:39.582Z,19.30
2017-09-19T13:56:12.030Z,19.50
2017-09-19T13:58:44.355Z,19.50
2017-09-19T14:01:16.680Z,19.50
2017-09-19T14:03:48.896Z,19.60
2017-09-19T14:06:21.284Z,19.90
2017-09-19T14:08:53.632Z,19.90
2017-09-19T14:11:26.044Z,20.00
2017-09-19T14:13:58.460Z,19.70
2017-09-19T14:16:30.756Z,19.60
2017-09-19T14:19:03.026Z,19.70
2017-09-19T14:21:35.176Z,19.80
2017-09-19T14:24:07.341Z,19.80
2017-09-19T14:26:39.572Z,20.10
2017-09-19T14:29:11.817Z,20.60
2017-09-19T14:31:44.957Z,20.80
2017-09-19T14:34:17.981Z,20.30
2017-09-19T14:36:50.312Z,20.20
2017-09-19T14:39:22.704Z,20.10
2017-09-19T14:41:54.973Z,19.90
2017-09-19T14:44:27.281Z,19.80
2017-09-19T14:46:59.461Z,19.80
2017-09-19T14:49:31.661Z,20.00
2017-09-19T14:52:04.046Z,19.80
2017-09-19T14:54:37.062Z,19.00
2017-09-19T14:57:10.997Z,18.90
2017-09-19T14:59:43.146Z,18.80
2017-09-19T15:02:15.529Z,18.70
2017-09-19T15:04:48.096Z,18.50
2017-09-19T15:07:20.832Z,18.50
2017-09-19T15:09:53.177Z,18.50
2017-09-19T15:12:25.458Z,18.70
2017-09-19T15:14:57.757Z,18.60
2017-09-19T15:17:30.166Z,18.40
2017-09-19T15:20:02.467Z,18.60
2017-09-19T15:22:34.673Z,18.50
2017-09-19T15:25:13.777Z,18.50
2017-09-19T15:27:46.064Z,18.50
2017-09-19T15:30:18.643Z,18.40
2017-09-19T15:32:51.705Z,18.30
2017-09-19T15:35:23.966Z,18.20
2017-09-19T15:37:56.787Z,18.10
2017-09-19T15:40:29.235Z,18.00
2017-09-19T15:43:01.623Z,18.00
2017-09-19T15:45:35.129Z,17.70
2017-09-19T15:48:07.676Z,17.70
2017-09-19T15:50:40.716Z,17.40
2017-09-19T15:53:13.027Z,17.30
2017-09-19T15:55:45.437Z,17.40
2017-09-19T15:58:17.721Z,17.30
2017-09-19T16:00:50.141Z,17.20
2017-09-19T16:03:22.434Z,17.20
2017-09-19T16:05:54.789Z,17.30
2017-09-19T16:08:27.335Z,17.30
2017-09-19T16:10:59.774Z,17.20
2017-09-19T16:13:32.405Z,17.20
2017-09-19T16:16:05.129Z,17.10
2017-09-19T16:18:37.317Z,17.10
2017-09-19T16:21:10.628Z,16.90
2017-09-19T16:23:42.977Z,16.90
2017-09-19T16:26:16.053Z,16.80
2017-09-19T16:28:49.309Z,16.90
2017-09-19T16:31:21.597Z,16.80
2017-09-19T16:33:53.886Z,16.80
2017-09-19T16:36:26.137Z,16.80
2017-09-19T16:38:58.747Z,16.80
2017-09-19T16:41:31.575Z,16.80
2017-09-19T16:44:04.177Z,16.70
2017-09-19T16:46:37.101Z,16.60
2017-09-19T16:49:09.692Z,16.50
2017-09-19T16:51:42.046Z,16.50
2017-09-19T16:54:14.356Z,16.50
2017-09-19T16:56:47.031Z,16.50
2017-09-19T16:59:19.354Z,16.40
2017-09-19T17:01:59.393Z,16.20
2017-09-19T17:04:31.682Z,16.20
2017-09-19T17:07:04.115Z,16.10
2017-09-19T17:09:36.473Z,16.10
2017-09-19T17:12:08.703Z,16.10
2017-09-19T17:14:40.941Z,16.00
2017-09-19T17:17:14.378Z,16.00
2017-09-19T17:19:46.945Z,16.10
2017-09-19T17:22:19.460Z,16.00
2017-09-19T17:24:51.980Z,16.00
2017-09-19T17:27:24.297Z,15.90
2017-09-19T17:29:56.686Z,15.90
2017-09-19T17:32:29.922Z,15.80
2017-09-19T17:35:03.300Z,15.80
2017-09-19T17:37:36.044Z,15.70
2017-09-19T17:40:08.332Z,15.70
2017-09-19T17:42:41.188Z,15.70
2017-09-19T17:45:13.587Z,15.70
2017-09-19T17:47:46.015Z,15.60
2017-09-19T17:50:19.475Z,15.60
2017-09-19T17:52:52.337Z,15.60
2017-09-19T17:55:24.851Z,15.60
2017-09-19T17:57:57.149Z,15.60
2017-09-19T18:00:29.581Z,15.70
2017-09-19T18:03:02.405Z,15.60
2017-09-19T18:05:35.251Z,15.60
2017-09-19T18:08:07.852Z,15.60
2017-09-19T18:10:40.622Z,15.70
2017-09-19T18:13:13.031Z,15.80
2017-09-19T18:15:45.437Z,16.10
2017-09-19T18:18:17.746Z,15.80
2017-09-19T18:20:50.105Z,15.60
2017-09-19T18:23:22.413Z,15.40
2017-09-19T18:25:54.799Z,15.30
2017-09-19T18:28:27.027Z,15.30
2017-09-19T18:31:00.326Z,15.20
2017-09-19T18:33:33.825Z,15.10
2017-09-19T18:36:06.432Z,15.20
2017-09-19T18:38:39.162Z,15.10
2017-09-19T18:41:11.983Z,15.10
2017-09-19T18:43:45.033Z,15.00
2017-09-19T18:46:17.684Z,15.00
2017-09-19T18:48:50.185Z,15.00
2017-09-19T18:51:22.534Z,15.00
2017-09-19T18:53:54.898Z,14.90
2017-09-19T18:56:27.073Z,14.90
2017-09-19T18:58:59.354Z,15.00
2017-09-19T19:01:31.514Z,15.00
2017-09-19T19:04:03.854Z,15.00
2017-09-19T19:06:36.232Z,14.90
2017-09-19T19:09:09.052Z,14.80
2017-09-19T19:11:41.522Z,14.90
2017-09-19T19:14:13.957Z,14.90
2017-09-19T19:16:46.391Z,14.90
2017-09-19T19:19:18.698Z,14.90
2017-09-19T19:21:50.950Z,14.90
2017-09-19T19:24:23.206Z,15.00
2017-09-19T19:26:55.497Z,14.80
2017-09-19T19:29:27.905Z,14.80
2017-09-19T19:32:00.282Z,14.80
2017-09-19T19:34:32.568Z,14.80
2017-09-19T19:37:05.573Z,14.80
2017-09-19T19:39:37.898Z,14.80
2017-09-19T19:42:10.235Z,14.80
2017-09-19T19:44:42.537Z,14.80
2017-09-19T19:47:14.937Z,14.80
2017-09-19T19:49:47.636Z,14.70
2017-09-19T19:52:20.137Z,14.70
2017-09-19T19:54:52.612Z,14.90
2017-09-19T19:57:19.737Z,14.70
2017-09-19T19:59:51.934Z,14.50
2017-09-19T20:02:24.337Z,14.40
2017-09-19T20:04:56.690Z,14.30
2017-09-19T20:07:29.144Z,14.30
2017-09-19T20:10:02.381Z,14.20
2017-09-19T20:12:35.605Z,14.20
2017-09-19T20:15:08.041Z,14.10
2017-09-19T20:17:41.456Z,14.00
2017-09-19T20:20:14.475Z,14.00
2017-09-19T20:22:47.805Z,14.00
2017-09-19T20:25:20.214Z,14.00
2017-09-19T20:27:52.616Z,13.90
2017-09-19T20:30:24.861Z,13.80
2017-09-19T20:32:57.634Z,13.80
2017-09-19T20:35:31.001Z,13.50
2017-09-19T20:38:04.054Z,13.50
2017-09-19T20:40:36.298Z,13.50
2017-09-19T20:43:10.802Z,13.40
2017-09-19T20:45:43.770Z,13.50
2017-09-19T20:48:16.798Z,13.30
2017-09-19T20:50:49.149Z,13.30
2017-09-19T20:53:21.867Z,13.30
2017-09-19T20:55:54.181Z,13.30
2017-09-19T20:58:27.199Z,13.10
2017-09-19T21:00:59.617Z,13.10
2017-09-19T21:03:38.034Z,13.00
2017-09-19T21:06:16.556Z,13.00
2017-09-19T21:08:54.938Z,13.00
2017-09-19T21:11:33.546Z,13.10
2017-09-19T21:14:11.751Z,13.10
2017-09-19T21:16:51.150Z,13.00
2017-09-19T21:19:26.357Z,13.00
2017-09-19T21:21:59.641Z,13.00
2017-09-19T21:24:31.938Z,13.00
2017-09-19T21:27:04.162Z,13.00
2017-09-19T21:29:36.552Z,12.90
2017-09-19T21:32:08.833Z,12.90
2017-09-19T21:34:41.736Z,12.90
2017-09-19T21:37:13.954Z,12.90
2017-09-19T21:39:46.412Z,12.80
2017-09-19T21:42:18.861Z,12.70
2017-09-19T21:44:51.369Z,12.70
2017-09-19T21:47:23.598Z,12.70
2017-09-19T21:49:56.053Z,12.80
2017-09-19T21:52:28.952Z,12.60
2017-09-19T21:55:01.213Z,12.50
2017-09-19T21:57:33.497Z,12.40
2017-09-19T22:00:05.906Z,12.40
2017-09-19T22:02:39.100Z,12.20
2017-09-19T22:05:11.425Z,12.20
2017-09-19T22:07:44.524Z,12.30
2017-09-19T22:10:16.887Z,12.20
2017-09-19T22:12:49.262Z,12.20
2017-09-19T22:15:21.664Z,12.10
2017-09-19T22:17:54.007Z,12.10
2017-09-19T22:20:26.229Z,12.10
2017-09-19T22:22:58.563Z,12.00
2017-09-19T22:25:31.523Z,12.00
2017-09-19T22:28:03.662Z,12.00
2017-09-19T22:30:36.125Z,12.20
2017-09-19T22:33:08.510Z,12.00
2017-09-19T22:35:40.686Z,11.90
2017-09-19T22:38:13.021Z,11.90
2017-09-19T22:40:46.273Z,11.90
2017-09-19T22:43:18.686Z,11.90
2017-09-19T22:45:50.897Z,11.80
2017-09-19T22:48:23.137Z,11.80
2017-09-19T22:50:55.471Z,11.70
2017-09-19T22:53:28.001Z,11.70
2017-09-19T22:56:00.395Z,11.70
2017-09-19T22:58:33.428Z,11.60
2017-09-19T23:01:05.737Z,11.50
2017-09-19T23:03:38.028Z,11.50
2017-09-19T23:06:10.254Z,11.50
2017-09-19T23:08:42.510Z,11.50
2017-09-19T23:11:14.722Z,11.40
2017-09-19T23:13:47.297Z,11.40
2017-09-19T23:16:19.692Z,11.40
2017-09-19T23:18:52.016Z,11.30
2017-09-19T23:21:24.442Z,11.30
2017-09-19T23:23:57.049Z,11.30
2017-09-19T23:26:29.410Z,11.30
2017-09-19T23:29:01.622Z,11.30
2017-09-19T23:31:34.005Z,11.30
2017-09-19T23:34:06.466Z,11.20
2017-09-19T23:36:39.529Z,11.10
2017-09-19T23:39:12.522Z,11.10
2017-09-19T23:41:45.431Z,11.10
2017-09-19T23:44:17.989Z,11.00
2017-09-19T23:46:50.159Z,11.00
2017-09-19T23:49:22.528Z,11.10
2017-09-19T23:51:54.853Z,11.00
2017-09-19T23:54:27.516Z,11.10
2017-09-19T23:56:59.925Z,11.00
2017-09-19T23:59:32.228Z,11.00
